sensor_id;sensor_type;location;lat;lon;timestamp;pressure;altitude;pressure_sealevel;temperature;humidity
47080;BME280;33067;49.296;14.470;2022-07-10T00:01:53;97324.96;;;21.28;40.11
47080;BME280;33067;49.296;14.470;2022-07-10T00:04:18;97327.11;;;21.19;40.33
47080;BME280;33067;49.296;14.470;2022-07-10T00:06:43;97326.16;;;21.26;40.28
47080;BME280;33067;49.296;14.470;2022-07-10T00:09:08;97325.63;;;21.31;40.10
47080;BME280;33067;49.296;14.470;2022-07-10T00:11:33;97322.20;;;21.25;40.30
47080;BME280;33067;49.296;14.470;2022-07-10T00:13:59;97322.69;;;21.45;40.27
47080;BME280;33067;49.296;14.470;2022-07-10T00:16:23;97323.78;;;21.24;40.34
47080;BME280;33067;49.296;14.470;2022-07-10T00:18:49;97329.41;;;21.25;40.34
47080;BME280;33067;49.296;14.470;2022-07-10T00:21:14;97326.03;;;21.26;40.31
47080;BME280;33067;49.296;14.470;2022-07-10T00:23:39;97319.36;;;21.23;40.16
47080;BME280;33067;49.296;14.470;2022-07-10T00:26:04;97314.29;;;21.49;40.10
47080;BME280;33067;49.296;14.470;2022-07-10T00:28:29;97314.16;;;21.29;40.05
47080;BME280;33067;49.296;14.470;2022-07-10T00:30:54;97312.07;;;21.22;40.02
47080;BME280;33067;49.296;14.470;2022-07-10T00:33:19;97310.76;;;21.09;39.97
47080;BME280;33067;49.296;14.470;2022-07-10T00:35:44;97306.85;;;21.29;40.37
47080;BME280;33067;49.296;14.470;2022-07-10T00:38:09;97301.20;;;21.02;40.20
47080;BME280;33067;49.296;14.470;2022-07-10T00:40:35;97302.02;;;20.82;40.32
47080;BME280;33067;49.296;14.470;2022-07-10T00:43:00;97302.77;;;21.02;40.46
47080;BME280;33067;49.296;14.470;2022-07-10T00:45:26;97300.65;;;21.01;40.35
47080;BME280;33067;49.296;14.470;2022-07-10T00:47:51;97298.70;;;21.05;40.30
47080;BME280;33067;49.296;14.470;2022-07-10T00:50:16;97298.10;;;20.79;40.21
47080;BME280;33067;49.296;14.470;2022-07-10T00:52:41;97298.60;;;20.85;40.24
47080;BME280;33067;49.296;14.470;2022-07-10T00:55:08;97299.30;;;21.13;40.20
47080;BME280;33067;49.296;14.470;2022-07-10T00:57:31;97292.41;;;20.87;40.27
47080;BME280;33067;49.296;14.470;2022-07-10T00:59:56;97291.46;;;21.07;40.08
47080;BME280;33067;49.296;14.470;2022-07-10T01:02:21;97292.47;;;21.06;40.10
47080;BME280;33067;49.296;14.470;2022-07-10T01:04:46;97291.64;;;20.82;40.23
47080;BME280;33067;49.296;14.470;2022-07-10T01:07:12;97285.96;;;21.09;40.18
47080;BME280;33067;49.296;14.470;2022-07-10T01:09:37;97285.20;;;21.11;40.14
47080;BME280;33067;49.296;14.470;2022-07-10T01:12:03;97282.81;;;20.85;40.13
47080;BME280;33067;49.296;14.470;2022-07-10T01:14:28;97285.06;;;20.86;40.27
47080;BME280;33067;49.296;14.470;2022-07-10T01:16:52;97284.75;;;20.86;40.27
47080;BME280;33067;49.296;14.470;2022-07-10T01:19:17;97283.07;;;21.06;40.40
47080;BME280;33067;49.296;14.470;2022-07-10T01:21:42;97286.21;;;20.77;40.36
47080;BME280;33067;49.296;14.470;2022-07-10T01:24:09;97290.67;;;20.78;40.42
47080;BME280;33067;49.296;14.470;2022-07-10T01:26:33;97288.46;;;20.79;40.63
47080;BME280;33067;49.296;14.470;2022-07-10T01:29:00;97287.90;;;20.71;40.62
47080;BME280;33067;49.296;14.470;2022-07-10T01:31:25;97282.58;;;20.91;40.72
47080;BME280;33067;49.296;14.470;2022-07-10T01:33:49;97284.17;;;20.98;40.69
47080;BME280;33067;49.296;14.470;2022-07-10T01:36:14;97280.12;;;20.77;40.70
47080;BME280;33067;49.296;14.470;2022-07-10T01:38:40;97278.36;;;21.07;40.59
47080;BME280;33067;49.296;14.470;2022-07-10T01:41:05;97278.55;;;21.13;40.53
47080;BME280;33067;49.296;14.470;2022-07-10T01:43:30;97278.17;;;21.28;40.48
47080;BME280;33067;49.296;14.470;2022-07-10T01:45:55;97272.59;;;21.04;40.49
47080;BME280;33067;49.296;14.470;2022-07-10T01:48:20;97270.86;;;20.80;40.52
47080;BME280;33067;49.296;14.470;2022-07-10T01:50:45;97269.00;;;20.80;40.70
47080;BME280;33067;49.296;14.470;2022-07-10T01:53:11;97269.80;;;20.85;40.70
47080;BME280;33067;49.296;14.470;2022-07-10T01:55:36;97271.58;;;21.18;40.59
47080;BME280;33067;49.296;14.470;2022-07-10T01:58:01;97270.94;;;21.17;40.76
47080;BME280;33067;49.296;14.470;2022-07-10T02:00:26;97268.16;;;21.22;40.80
47080;BME280;33067;49.296;14.470;2022-07-10T02:02:51;97263.90;;;21.01;40.76
47080;BME280;33067;49.296;14.470;2022-07-10T02:05:16;97263.95;;;21.40;40.87
47080;BME280;33067;49.296;14.470;2022-07-10T02:07:41;97263.82;;;21.17;40.94
47080;BME280;33067;49.296;14.470;2022-07-10T02:12:59;97262.13;;;21.43;40.81
47080;BME280;33067;49.296;14.470;2022-07-10T02:15:24;97257.42;;;20.97;41.26
47080;BME280;33067;49.296;14.470;2022-07-10T02:17:49;97255.65;;;20.72;41.97
47080;BME280;33067;49.296;14.470;2022-07-10T02:20:14;97255.93;;;20.45;42.16
47080;BME280;33067;49.296;14.470;2022-07-10T02:22:41;97255.41;;;20.61;42.25
47080;BME280;33067;49.296;14.470;2022-07-10T02:25:06;97254.64;;;20.29;42.44
47080;BME280;33067;49.296;14.470;2022-07-10T02:27:31;97255.84;;;20.31;42.47
47080;BME280;33067;49.296;14.470;2022-07-10T02:29:59;97253.25;;;20.51;42.39
47080;BME280;33067;49.296;14.470;2022-07-10T02:32:22;97256.59;;;20.51;42.61
47080;BME280;33067;49.296;14.470;2022-07-10T02:34:47;97256.76;;;20.32;42.74
47080;BME280;33067;49.296;14.470;2022-07-10T02:37:12;97257.13;;;20.29;42.72
47080;BME280;33067;49.296;14.470;2022-07-10T02:39:37;97259.35;;;20.54;42.88
47080;BME280;33067;49.296;14.470;2022-07-10T02:42:04;97258.12;;;20.31;42.72
47080;BME280;33067;49.296;14.470;2022-07-10T02:44:28;97256.81;;;20.36;42.88
47080;BME280;33067;49.296;14.470;2022-07-10T02:46:53;97257.68;;;20.90;42.83
47080;BME280;33067;49.296;14.470;2022-07-10T02:49:18;97257.66;;;20.45;42.78
47080;BME280;33067;49.296;14.470;2022-07-10T02:51:45;97257.46;;;20.48;42.92
47080;BME280;33067;49.296;14.470;2022-07-10T02:54:08;97259.02;;;20.48;42.83
47080;BME280;33067;49.296;14.470;2022-07-10T02:56:33;97261.56;;;20.25;42.94
47080;BME280;33067;49.296;14.470;2022-07-10T02:58:58;97264.98;;;20.70;43.02
47080;BME280;33067;49.296;14.470;2022-07-10T03:01:26;97267.97;;;20.45;43.01
47080;BME280;33067;49.296;14.470;2022-07-10T03:03:49;97267.50;;;20.45;43.16
47080;BME280;33067;49.296;14.470;2022-07-10T03:06:16;97269.02;;;20.39;43.12
47080;BME280;33067;49.296;14.470;2022-07-10T03:08:39;97268.31;;;20.60;43.07
47080;BME280;33067;49.296;14.470;2022-07-10T03:11:05;97269.07;;;20.51;43.13
47080;BME280;33067;49.296;14.470;2022-07-10T03:13:30;97269.43;;;20.26;43.21
47080;BME280;33067;49.296;14.470;2022-07-10T03:15:56;97271.76;;;20.53;43.21
47080;BME280;33067;49.296;14.470;2022-07-10T03:18:21;97272.05;;;20.53;43.29
47080;BME280;33067;49.296;14.470;2022-07-10T03:20:48;97274.57;;;20.33;43.40
47080;BME280;33067;49.296;14.470;2022-07-10T03:23:13;97270.61;;;20.36;43.63
47080;BME280;33067;49.296;14.470;2022-07-10T03:25:38;97272.38;;;20.48;43.39
47080;BME280;33067;49.296;14.470;2022-07-10T03:28:03;97270.46;;;20.44;43.22
47080;BME280;33067;49.296;14.470;2022-07-10T03:30:30;97267.69;;;20.44;43.50
47080;BME280;33067;49.296;14.470;2022-07-10T03:32:57;97268.21;;;19.99;43.30
47080;BME280;33067;49.296;14.470;2022-07-10T03:35:20;97270.17;;;20.15;43.37
47080;BME280;33067;49.296;14.470;2022-07-10T03:37:45;97265.90;;;20.47;42.77
47080;BME280;33067;49.296;14.470;2022-07-10T03:40:11;97267.18;;;20.40;42.15
47080;BME280;33067;49.296;14.470;2022-07-10T03:42:35;97264.90;;;20.53;42.02
47080;BME280;33067;49.296;14.470;2022-07-10T03:45:00;97263.24;;;20.73;41.78
47080;BME280;33067;49.296;14.470;2022-07-10T03:47:26;97264.20;;;20.51;41.46
47080;BME280;33067;49.296;14.470;2022-07-10T03:49:51;97260.25;;;20.74;41.40
47080;BME280;33067;49.296;14.470;2022-07-10T03:52:16;97259.86;;;19.82;41.82
47080;BME280;33067;49.296;14.470;2022-07-10T03:54:41;97263.23;;;20.54;41.54
47080;BME280;33067;49.296;14.470;2022-07-10T03:57:07;97265.39;;;20.58;41.68
47080;BME280;33067;49.296;14.470;2022-07-10T03:59:32;97265.85;;;20.46;41.80
47080;BME280;33067;49.296;14.470;2022-07-10T04:01:57;97262.68;;;20.54;41.78
47080;BME280;33067;49.296;14.470;2022-07-10T04:04:23;97257.86;;;20.70;41.69
47080;BME280;33067;49.296;14.470;2022-07-10T04:06:48;97256.75;;;20.82;41.62
47080;BME280;33067;49.296;14.470;2022-07-10T04:09:13;97261.40;;;20.87;41.43
47080;BME280;33067;49.296;14.470;2022-07-10T04:11:38;97267.39;;;20.88;41.36
47080;BME280;33067;49.296;14.470;2022-07-10T04:14:03;97275.49;;;20.56;41.46
47080;BME280;33067;49.296;14.470;2022-07-10T04:16:28;97274.02;;;20.50;41.47
47080;BME280;33067;49.296;14.470;2022-07-10T04:18:53;97279.12;;;20.57;41.20
47080;BME280;33067;49.296;14.470;2022-07-10T04:21:19;97279.81;;;20.55;41.18
47080;BME280;33067;49.296;14.470;2022-07-10T04:23:44;97279.22;;;20.46;41.19
47080;BME280;33067;49.296;14.470;2022-07-10T04:26:09;97277.86;;;20.64;41.03
47080;BME280;33067;49.296;14.470;2022-07-10T04:28:34;97272.94;;;20.00;41.69
47080;BME280;33067;49.296;14.470;2022-07-10T04:31:00;97268.25;;;20.59;41.17
47080;BME280;33067;49.296;14.470;2022-07-10T04:33:25;97265.06;;;20.52;41.19
47080;BME280;33067;49.296;14.470;2022-07-10T04:35:50;97265.50;;;20.84;40.79
47080;BME280;33067;49.296;14.470;2022-07-10T04:38:16;97266.58;;;20.78;40.80
47080;BME280;33067;49.296;14.470;2022-07-10T04:40:41;97270.43;;;20.93;40.97
47080;BME280;33067;49.296;14.470;2022-07-10T04:43:06;97272.81;;;20.36;41.33
47080;BME280;33067;49.296;14.470;2022-07-10T04:45:32;97274.17;;;20.54;40.90
47080;BME280;33067;49.296;14.470;2022-07-10T04:47:57;97277.25;;;20.46;41.05
47080;BME280;33067;49.296;14.470;2022-07-10T04:50:22;97280.23;;;20.71;40.56
47080;BME280;33067;49.296;14.470;2022-07-10T04:52:48;97279.16;;;20.74;40.71
47080;BME280;33067;49.296;14.470;2022-07-10T04:55:13;97282.83;;;20.77;40.53
47080;BME280;33067;49.296;14.470;2022-07-10T04:57:38;97281.48;;;20.71;40.29
47080;BME280;33067;49.296;14.470;2022-07-10T05:00:04;97285.46;;;20.44;40.49
47080;BME280;33067;49.296;14.470;2022-07-10T05:02:28;97285.53;;;20.69;40.46
47080;BME280;33067;49.296;14.470;2022-07-10T05:04:53;97286.23;;;20.66;40.49
47080;BME280;33067;49.296;14.470;2022-07-10T05:07:19;97282.36;;;20.80;39.72
47080;BME280;33067;49.296;14.470;2022-07-10T05:09:45;97285.59;;;20.73;39.72
47080;BME280;33067;49.296;14.470;2022-07-10T05:12:11;97285.57;;;20.64;39.94
47080;BME280;33067;49.296;14.470;2022-07-10T05:14:36;97288.58;;;20.75;39.65
47080;BME280;33067;49.296;14.470;2022-07-10T05:17:01;97290.34;;;20.64;39.74
47080;BME280;33067;49.296;14.470;2022-07-10T05:19:31;97289.84;;;20.66;39.92
47080;BME280;33067;49.296;14.470;2022-07-10T05:21:51;97294.72;;;20.30;39.71
47080;BME280;33067;49.296;14.470;2022-07-10T05:24:16;97292.49;;;20.44;39.86
47080;BME280;33067;49.296;14.470;2022-07-10T05:26:41;97294.96;;;20.26;39.97
47080;BME280;33067;49.296;14.470;2022-07-10T05:29:06;97296.46;;;19.98;39.92
47080;BME280;33067;49.296;14.470;2022-07-10T05:31:36;97299.26;;;20.20;40.11
47080;BME280;33067;49.296;14.470;2022-07-10T05:33:57;97303.63;;;20.25;39.89
47080;BME280;33067;49.296;14.470;2022-07-10T05:36:22;97303.63;;;20.23;40.06
47080;BME280;33067;49.296;14.470;2022-07-10T05:38:59;97307.72;;;20.10;40.29
47080;BME280;33067;49.296;14.470;2022-07-10T05:41:14;97308.53;;;20.19;39.75
47080;BME280;33067;49.296;14.470;2022-07-10T05:43:39;97304.02;;;19.43;39.02
47080;BME280;33067;49.296;14.470;2022-07-10T05:46:04;97305.12;;;18.84;38.84
47080;BME280;33067;49.296;14.470;2022-07-10T05:48:30;97304.96;;;19.23;38.72
47080;BME280;33067;49.296;14.470;2022-07-10T05:50:56;97308.72;;;18.84;38.60
47080;BME280;33067;49.296;14.470;2022-07-10T05:53:20;97311.02;;;19.44;38.12
47080;BME280;33067;49.296;14.470;2022-07-10T05:55:46;97309.89;;;18.98;38.71
47080;BME280;33067;49.296;14.470;2022-07-10T05:58:11;97305.88;;;19.50;38.30
47080;BME280;33067;49.296;14.470;2022-07-10T06:00:46;97307.25;;;19.43;38.27
47080;BME280;33067;49.296;14.470;2022-07-10T06:03:01;97306.70;;;19.55;37.99
47080;BME280;33067;49.296;14.470;2022-07-10T06:05:26;97306.05;;;19.74;37.20
47080;BME280;33067;49.296;14.470;2022-07-10T06:07:51;97311.70;;;18.94;37.75
47080;BME280;33067;49.296;14.470;2022-07-10T06:10:17;97312.29;;;18.65;37.95
47080;BME280;33067;49.296;14.470;2022-07-10T06:12:42;97316.00;;;18.54;37.49
47080;BME280;33067;49.296;14.470;2022-07-10T06:15:19;97321.44;;;19.27;37.84
47080;BME280;33067;49.296;14.470;2022-07-10T06:17:33;97322.14;;;19.57;37.26
47080;BME280;33067;49.296;14.470;2022-07-10T06:19:58;97320.59;;;19.37;37.42
47080;BME280;33067;49.296;14.470;2022-07-10T06:22:23;97325.54;;;19.61;37.49
47080;BME280;33067;49.296;14.470;2022-07-10T06:24:48;97328.52;;;20.11;37.15
47080;BME280;33067;49.296;14.470;2022-07-10T06:27:14;97329.43;;;19.91;36.53
47080;BME280;33067;49.296;14.470;2022-07-10T06:29:44;97328.09;;;20.01;37.09
47080;BME280;33067;49.296;14.470;2022-07-10T06:32:04;97328.37;;;20.11;36.95
47080;BME280;33067;49.296;14.470;2022-07-10T06:34:29;97324.69;;;20.12;36.53
47080;BME280;33067;49.296;14.470;2022-07-10T06:36:54;97322.48;;;19.85;36.47
47080;BME280;33067;49.296;14.470;2022-07-10T06:39:19;97322.98;;;19.66;36.73
47080;BME280;33067;49.296;14.470;2022-07-10T06:41:44;97321.40;;;19.49;36.88
47080;BME280;33067;49.296;14.470;2022-07-10T06:44:09;97324.33;;;19.57;37.32
47080;BME280;33067;49.296;14.470;2022-07-10T06:46:35;97326.97;;;19.70;37.28
47080;BME280;33067;49.296;14.470;2022-07-10T06:49:00;97327.64;;;19.80;37.09
47080;BME280;33067;49.296;14.470;2022-07-10T06:51:25;97331.66;;;19.91;37.09
47080;BME280;33067;49.296;14.470;2022-07-10T06:53:50;97330.13;;;19.92;37.12
47080;BME280;33067;49.296;14.470;2022-07-10T06:56:15;97331.48;;;19.66;37.53
47080;BME280;33067;49.296;14.470;2022-07-10T06:58:41;97330.80;;;20.09;37.55
47080;BME280;33067;49.296;14.470;2022-07-10T07:01:06;97333.12;;;20.32;37.72
47080;BME280;33067;49.296;14.470;2022-07-10T07:03:31;97332.31;;;20.32;37.71
47080;BME280;33067;49.296;14.470;2022-07-10T07:05:56;97334.29;;;20.37;37.60
47080;BME280;33067;49.296;14.470;2022-07-10T07:08:21;97334.36;;;20.62;37.31
47080;BME280;33067;49.296;14.470;2022-07-10T07:10:47;97333.40;;;21.01;36.37
47080;BME280;33067;49.296;14.470;2022-07-10T07:13:12;97333.18;;;21.01;36.21
47080;BME280;33067;49.296;14.470;2022-07-10T07:15:42;97331.23;;;20.93;36.33
47080;BME280;33067;49.296;14.470;2022-07-10T07:18:12;97333.97;;;21.03;35.99
47080;BME280;33067;49.296;14.470;2022-07-10T07:20:28;97332.45;;;20.42;35.51
47080;BME280;33067;49.296;14.470;2022-07-10T07:22:52;97334.11;;;20.83;35.46
47080;BME280;33067;49.296;14.470;2022-07-10T07:25:18;97338.15;;;20.89;35.31
47080;BME280;33067;49.296;14.470;2022-07-10T07:27:43;97339.82;;;20.87;35.26
47080;BME280;33067;49.296;14.470;2022-07-10T07:30:10;97339.52;;;20.46;35.04
47080;BME280;33067;49.296;14.470;2022-07-10T07:32:33;97341.08;;;20.29;35.85
47080;BME280;33067;49.296;14.470;2022-07-10T07:34:58;97341.48;;;20.32;34.79
47080;BME280;33067;49.296;14.470;2022-07-10T07:37:23;97339.00;;;20.59;34.59
47080;BME280;33067;49.296;14.470;2022-07-10T07:39:48;97337.20;;;20.50;34.95
47080;BME280;33067;49.296;14.470;2022-07-10T07:42:13;97342.97;;;20.57;34.91
47080;BME280;33067;49.296;14.470;2022-07-10T07:44:39;97344.57;;;20.62;34.22
47080;BME280;33067;49.296;14.470;2022-07-10T07:47:04;97344.88;;;20.63;33.80
47080;BME280;33067;49.296;14.470;2022-07-10T07:49:29;97343.43;;;20.66;33.74
47080;BME280;33067;49.296;14.470;2022-07-10T07:51:54;97341.01;;;20.67;33.48
47080;BME280;33067;49.296;14.470;2022-07-10T07:54:19;97345.30;;;20.61;33.81
47080;BME280;33067;49.296;14.470;2022-07-10T07:56:44;97345.26;;;20.61;34.45
47080;BME280;33067;49.296;14.470;2022-07-10T07:59:10;97341.12;;;20.50;34.42
47080;BME280;33067;49.296;14.470;2022-07-10T08:01:35;97341.20;;;20.70;34.55
47080;BME280;33067;49.296;14.470;2022-07-10T08:04:00;97338.15;;;20.65;34.83
47080;BME280;33067;49.296;14.470;2022-07-10T08:06:25;97334.63;;;21.01;34.23
47080;BME280;33067;49.296;14.470;2022-07-10T08:08:50;97334.16;;;21.04;34.48
47080;BME280;33067;49.296;14.470;2022-07-10T08:11:15;97332.83;;;21.49;33.81
47080;BME280;33067;49.296;14.470;2022-07-10T08:13:40;97325.38;;;21.78;33.51
47080;BME280;33067;49.296;14.470;2022-07-10T08:16:06;97321.27;;;22.10;33.01
47080;BME280;33067;49.296;14.470;2022-07-10T08:18:30;97318.78;;;22.18;32.80
47080;BME280;33067;49.296;14.470;2022-07-10T08:20:56;97318.82;;;22.18;32.06
47080;BME280;33067;49.296;14.470;2022-07-10T08:23:21;97320.84;;;22.18;31.90
47080;BME280;33067;49.296;14.470;2022-07-10T08:25:46;97319.37;;;22.63;32.08
47080;BME280;33067;49.296;14.470;2022-07-10T08:28:11;97320.06;;;22.71;31.27
47080;BME280;33067;49.296;14.470;2022-07-10T08:30:36;97320.51;;;23.10;31.09
47080;BME280;33067;49.296;14.470;2022-07-10T08:33:01;97314.21;;;23.02;28.80
47080;BME280;33067;49.296;14.470;2022-07-10T08:35:26;97314.91;;;22.64;28.24
47080;BME280;33067;49.296;14.470;2022-07-10T08:37:51;97312.93;;;22.67;29.32
47080;BME280;33067;49.296;14.470;2022-07-10T08:40:16;97304.01;;;22.51;29.52
47080;BME280;33067;49.296;14.470;2022-07-10T08:42:42;97303.64;;;22.59;29.21
47080;BME280;33067;49.296;14.470;2022-07-10T08:45:07;97307.69;;;22.85;28.87
47080;BME280;33067;49.296;14.470;2022-07-10T08:47:34;97301.36;;;23.12;28.00
47080;BME280;33067;49.296;14.470;2022-07-10T08:49:57;97298.38;;;23.33;28.24
47080;BME280;33067;49.296;14.470;2022-07-10T08:52:26;97303.45;;;23.11;27.89
47080;BME280;33067;49.296;14.470;2022-07-10T08:54:51;97302.87;;;22.53;27.85
47080;BME280;33067;49.296;14.470;2022-07-10T08:57:12;97308.80;;;23.01;27.79
47080;BME280;33067;49.296;14.470;2022-07-10T08:59:37;97308.68;;;22.67;27.95
47080;BME280;33067;49.296;14.470;2022-07-10T09:02:02;97310.57;;;22.77;29.17
47080;BME280;33067;49.296;14.470;2022-07-10T09:04:27;97309.85;;;22.72;29.05
47080;BME280;33067;49.296;14.470;2022-07-10T09:06:53;97311.82;;;21.85;29.31
47080;BME280;33067;49.296;14.470;2022-07-10T09:09:17;97313.85;;;21.98;29.17
47080;BME280;33067;49.296;14.470;2022-07-10T09:11:42;97317.87;;;22.01;28.87
47080;BME280;33067;49.296;14.470;2022-07-10T09:14:08;97318.93;;;21.77;28.50
47080;BME280;33067;49.296;14.470;2022-07-10T09:16:55;97317.06;;;21.98;28.43
47080;BME280;33067;49.296;14.470;2022-07-10T09:21:32;97317.12;;;21.94;28.54
47080;BME280;33067;49.296;14.470;2022-07-10T09:23:53;97319.91;;;21.80;28.69
47080;BME280;33067;49.296;14.470;2022-07-10T09:26:14;97316.31;;;22.37;28.88
47080;BME280;33067;49.296;14.470;2022-07-10T09:28:38;97314.86;;;22.39;28.99
47080;BME280;33067;49.296;14.470;2022-07-10T09:31:03;97312.98;;;22.69;28.99
47080;BME280;33067;49.296;14.470;2022-07-10T09:33:32;97313.82;;;22.74;29.43
47080;BME280;33067;49.296;14.470;2022-07-10T09:36:05;97317.06;;;22.14;28.67
47080;BME280;33067;49.296;14.470;2022-07-10T09:38:18;97318.30;;;22.24;28.50
47080;BME280;33067;49.296;14.470;2022-07-10T09:40:48;97309.15;;;21.76;28.33
47080;BME280;33067;49.296;14.470;2022-07-10T09:43:11;97315.23;;;22.08;28.41
47080;BME280;33067;49.296;14.470;2022-07-10T09:45:35;97320.97;;;22.04;29.20
47080;BME280;33067;49.296;14.470;2022-07-10T09:47:59;97323.70;;;21.61;28.70
47080;BME280;33067;49.296;14.470;2022-07-10T09:50:25;97320.67;;;21.35;28.08
47080;BME280;33067;49.296;14.470;2022-07-10T09:52:50;97324.32;;;21.23;28.39
47080;BME280;33067;49.296;14.470;2022-07-10T09:55:14;97324.72;;;21.53;28.32
47080;BME280;33067;49.296;14.470;2022-07-10T09:57:40;97325.14;;;21.28;28.37
47080;BME280;33067;49.296;14.470;2022-07-10T10:00:05;97319.02;;;20.93;28.18
47080;BME280;33067;49.296;14.470;2022-07-10T10:02:30;97326.58;;;21.31;28.60
47080;BME280;33067;49.296;14.470;2022-07-10T10:04:55;97322.91;;;21.73;28.14
47080;BME280;33067;49.296;14.470;2022-07-10T10:07:20;97324.20;;;21.81;28.04
47080;BME280;33067;49.296;14.470;2022-07-10T10:09:51;97322.40;;;21.99;27.84
47080;BME280;33067;49.296;14.470;2022-07-10T10:12:15;97313.81;;;22.18;27.92
47080;BME280;33067;49.296;14.470;2022-07-10T10:14:36;97324.93;;;21.69;27.74
47080;BME280;33067;49.296;14.470;2022-07-10T10:17:01;97323.82;;;21.31;27.96
47080;BME280;33067;49.296;14.470;2022-07-10T10:19:26;97321.61;;;22.07;28.17
47080;BME280;33067;49.296;14.470;2022-07-10T10:21:50;97317.14;;;22.16;27.72
47080;BME280;33067;49.296;14.470;2022-07-10T10:24:16;97323.97;;;21.59;28.37
47080;BME280;33067;49.296;14.470;2022-07-10T10:26:41;97323.87;;;21.80;28.00
47080;BME280;33067;49.296;14.470;2022-07-10T10:29:06;97316.37;;;22.12;28.00
47080;BME280;33067;49.296;14.470;2022-07-10T10:31:31;97318.56;;;21.72;27.82
47080;BME280;33067;49.296;14.470;2022-07-10T10:33:56;97312.91;;;21.96;27.84
47080;BME280;33067;49.296;14.470;2022-07-10T10:38:59;97306.19;;;22.26;27.26
47080;BME280;33067;49.296;14.470;2022-07-10T10:41:22;97305.64;;;22.23;27.88
47080;BME280;33067;49.296;14.470;2022-07-10T10:43:36;97304.21;;;22.75;27.30
47080;BME280;33067;49.296;14.470;2022-07-10T10:48:26;97303.02;;;22.64;26.74
47080;BME280;33067;49.296;14.470;2022-07-10T10:50:53;97298.65;;;22.24;26.41
47080;BME280;33067;49.296;14.470;2022-07-10T10:53:19;97294.55;;;22.29;26.41
47080;BME280;33067;49.296;14.470;2022-07-10T10:58:15;97303.37;;;22.04;26.58
47080;BME280;33067;49.296;14.470;2022-07-10T11:00:33;97305.77;;;21.26;27.01
47080;BME280;33067;49.296;14.470;2022-07-10T11:03:18;97310.76;;;20.76;27.24
47080;BME280;33067;49.296;14.470;2022-07-10T11:05:40;97311.10;;;21.62;27.23
47080;BME280;33067;49.296;14.470;2022-07-10T11:07:52;97310.88;;;21.67;27.27
47080;BME280;33067;49.296;14.470;2022-07-10T11:10:30;97311.71;;;21.46;27.07
47080;BME280;33067;49.296;14.470;2022-07-10T11:15:03;97298.03;;;22.04;26.87
47080;BME280;33067;49.296;14.470;2022-07-10T11:17:50;97299.40;;;22.11;26.70
47080;BME280;33067;49.296;14.470;2022-07-10T11:24:50;97286.90;;;22.82;25.93
47080;BME280;33067;49.296;14.470;2022-07-10T11:32:17;97289.92;;;22.22;26.10
47080;BME280;33067;49.296;14.470;2022-07-10T11:34:39;97294.61;;;22.26;26.47
47080;BME280;33067;49.296;14.470;2022-07-10T11:36:49;97295.57;;;21.61;26.32
47080;BME280;33067;49.296;14.470;2022-07-10T11:39:39;97289.34;;;21.78;26.22
47080;BME280;33067;49.296;14.470;2022-07-10T11:41:47;97294.24;;;21.94;26.01
47080;BME280;33067;49.296;14.470;2022-07-10T11:44:15;97292.23;;;21.80;25.89
47080;BME280;33067;49.296;14.470;2022-07-10T11:46:46;97288.64;;;21.93;25.57
47080;BME280;33067;49.296;14.470;2022-07-10T11:51:25;97287.11;;;22.43;25.88
47080;BME280;33067;49.296;14.470;2022-07-10T11:53:54;97287.78;;;21.78;26.12
47080;BME280;33067;49.296;14.470;2022-07-10T11:56:08;97285.29;;;22.36;26.34
47080;BME280;33067;49.296;14.470;2022-07-10T11:58:33;97289.43;;;22.26;26.62
47080;BME280;33067;49.296;14.470;2022-07-10T12:01:00;97291.34;;;22.73;26.39
47080;BME280;33067;49.296;14.470;2022-07-10T12:03:24;97294.45;;;22.53;26.87
47080;BME280;33067;49.296;14.470;2022-07-10T12:06:11;97289.64;;;22.50;26.07
47080;BME280;33067;49.296;14.470;2022-07-10T12:08:16;97296.09;;;22.56;26.40
47080;BME280;33067;49.296;14.470;2022-07-10T12:10:40;97293.99;;;22.26;26.46
47080;BME280;33067;49.296;14.470;2022-07-10T12:13:05;97303.58;;;22.28;26.61
47080;BME280;33067;49.296;14.470;2022-07-10T12:18:18;97305.53;;;22.51;26.55
47080;BME280;33067;49.296;14.470;2022-07-10T12:20:44;97306.70;;;21.74;27.49
47080;BME280;33067;49.296;14.470;2022-07-10T12:22:59;97308.21;;;22.15;26.91
47080;BME280;33067;49.296;14.470;2022-07-10T12:25:38;97311.75;;;22.22;26.99
47080;BME280;33067;49.296;14.470;2022-07-10T12:30:20;97312.06;;;22.77;26.47
47080;BME280;33067;49.296;14.470;2022-07-10T12:32:47;97306.44;;;22.39;26.95
47080;BME280;33067;49.296;14.470;2022-07-10T12:38:03;97316.29;;;21.24;26.90
47080;BME280;33067;49.296;14.470;2022-07-10T12:40:00;97308.84;;;21.70;27.36
47080;BME280;33067;49.296;14.470;2022-07-10T12:56:36;97315.88;;;21.96;27.41
47080;BME280;33067;49.296;14.470;2022-07-10T12:59:03;97318.19;;;21.07;28.34
47080;BME280;33067;49.296;14.470;2022-07-10T13:01:26;97323.61;;;21.45;28.02
47080;BME280;33067;49.296;14.470;2022-07-10T13:03:58;97328.92;;;21.31;28.12
47080;BME280;33067;49.296;14.470;2022-07-10T13:06:26;97326.18;;;21.56;28.15
47080;BME280;33067;49.296;14.470;2022-07-10T13:08:44;97328.69;;;21.90;28.10
47080;BME280;33067;49.296;14.470;2022-07-10T13:11:05;97323.88;;;21.93;28.11
47080;BME280;33067;49.296;14.470;2022-07-10T13:13:37;97325.75;;;22.01;27.51
47080;BME280;33067;49.296;14.470;2022-07-10T13:16:00;97328.26;;;21.31;28.20
47080;BME280;33067;49.296;14.470;2022-07-10T13:18:27;97332.02;;;21.51;28.11
47080;BME280;33067;49.296;14.470;2022-07-10T13:20:46;97329.41;;;21.80;27.60
47080;BME280;33067;49.296;14.470;2022-07-10T13:23:11;97325.01;;;22.30;27.65
47080;BME280;33067;49.296;14.470;2022-07-10T13:25:37;97315.92;;;22.49;26.99
47080;BME280;33067;49.296;14.470;2022-07-10T13:28:07;97316.70;;;22.59;27.26